Latest Coastal Weather Observations for Cape Moreton

IDQ60701

Issued at 8:21 am EST Friday 19 December 2014 (issued every 10 minutes, with the page automatically refreshed every 10 minutes)

About coastal observations | Map of coastal stations | Coastal observations for QLD | Marine services | Other Formats
Station Details ID: 040043 Name: CAPE MORETON LIGHTHOUSE Lat: -27.03 Lon: 153.47 Height: 99.9 m
Data from the previous 72 hours. | See also: Recent months at Cape Moreton
Date/Time
EST
Temp

°C
Wind Pressure Rain
since 9am
mm
Weather Cloud Vis
km
Sea
Height
m
Swell
Dir
 
Speed
knots
Gust
knots
hPa Trend Height
m
Period
s
Dir
19/08:00am 20.6 W 10 13 1012.0 - 12.8 - - - - - - -
19/07:30am 21.0 W 9 12 1012.0 - 12.8 - - - - - - -
19/07:00am 20.7 WNW 9 12 1011.9 - 12.8 - - - - - - -
19/06:30am 20.7 WNW 9 11 1011.5 - 12.8 - - - - - - -
19/06:00am 20.5 WNW 8 10 1011.2 - 12.8 Recent precip. - - - - - -
19/05:30am 20.3 W 9 10 1011.3 - 12.8 - - - - - - -
19/05:00am 20.2 W 9 10 1011.3 - 12.6 - - - - - - -
19/04:30am 20.2 WSW 5 6 1011.1 - 12.0 - - - - - - -
19/04:00am 20.3 WSW 5 7 1010.8 - 11.8 - - - - - - -
19/03:30am 20.3 SW 8 10 1011.3 - 11.4 - - - - - - -
19/03:00am 20.4 SW 9 13 1011.0 - 10.8 Rain - - - - - -
19/02:30am 20.5 WSW 12 17 1011.0 - 10.2 - - - - - - -
19/02:00am 20.7 WSW 12 17 1011.1 - 9.2 - - - - - - -
19/01:30am 21.9 W 13 19 1011.8 - 7.8 - - - - - - -
19/01:00am 22.7 NW 13 19 1012.1 - 5.8 - - - - - - -
19/12:30am 22.6 NW 13 17 1012.0 - 4.6 - - - - - - -
19/12:00am 22.6 NNW 12 17 1011.6 - 4.4 Recent precip. - - - - - -
 
Date/Time
EST
Temp

°C
Wind Pressure Rain
since 9am
mm
Weather Cloud Vis
km
Sea
Height
m
Swell
Dir
 
Speed
knots
Gust
knots
hPa Trend Height
m
Period
s
Dir
18/11:30pm 22.8 NNW 11 14 1011.5 - 4.4 - - - - - - -
18/11:00pm 22.8 NW 7 10 1011.9 - 4.0 - - - - - - -
18/10:30pm 22.7 ENE 10 12 1011.0 - 3.8 - - - - - - -
18/10:00pm 22.8 ENE 8 10 1011.1 - 3.8 - - - - - - -
18/09:30pm 23.0 SE 2 5 1011.5 - 3.8 - - - - - - -
18/09:00pm 23.2 WNW 7 11 1012.1 - 3.2 Recent precip. - - - - - -
18/08:30pm 23.0 S 3 5 1011.4 - 3.0 - - - - - - -
18/08:00pm 22.3 SSW 10 18 1010.2 - 3.0 - - - - - - -
18/07:30pm 22.6 SW 13 19 1011.0 - 0.4 - - - - - - -
18/07:00pm 25.3 WSW 13 20 1010.1 - 0.0 - - - - - - -
18/06:48pm 25.7 NW 18 25 1009.6 - 0.0 - - - - - - -
18/06:30pm 25.7 NNW 23 29 1007.8 - 0.0 - - - - - - -
18/06:00pm 25.9 NNW 24 31 1007.3 - 0.0 - - - - - - -
18/05:30pm 25.7 N 26 32 1006.2 - 0.0 - - - - - - -
18/05:00pm 25.7 N 24 30 1006.2 - 0.0 - - - - - - -
18/04:30pm 25.7 N 23 29 1005.9 - 0.0 - - - - - - -
18/04:00pm 25.9 N 19 26 1006.0 - 0.0 - - - - - - -
18/03:30pm 26.6 N 18 23 1006.0 - 0.0 - - - - - - -
18/03:00pm 26.7 N 17 23 1006.3 - 0.0 - - - - - - -
18/02:30pm 27.2 N 15 19 1006.7 - 0.0 - - - - - - -
18/02:00pm 27.7 N 14 20 1007.2 - 0.0 - - - - - - -
18/01:30pm 27.3 N 15 19 1007.9 - 0.0 - - - - - - -
18/01:00pm 27.1 N 15 19 1008.3 - 0.0 - - - - - - -
18/12:30pm 27.3 N 14 19 1008.8 - 0.0 - - - - - - -
18/12:00pm 26.6 N 15 18 1009.3 - 0.0 - - - - - - -
18/11:30am 26.7 N 14 17 1009.6 - 0.0 - - - - - - -
18/11:00am 26.9 NNW 14 18 1010.1 - 0.0 - - - - - - -
18/10:30am 26.9 NNW 12 18 1010.4 - 0.0 - - - - - - -
18/10:00am 26.6 NNW 13 18 1010.5 - 0.0 - - - - - - -
18/09:30am 26.0 NNW 13 18 1010.6 - 0.0 - - - - - - -
18/09:00am 26.8 NNW 9 13 1011.1 - 0.0 - - - - - - -
18/08:30am 27.0 NW 8 11 1011.6 - 0.0 - - - - - - -
18/08:00am 27.0 NNW 5 6 1011.1 - 0.0 - - - - - - -
18/07:30am 25.3 NNE 5 6 1011.0 - 0.0 - - - - - - -
18/07:00am 25.2 NE 5 7 1011.1 - 0.0 - - - - - - -
18/06:30am 24.8 ESE 6 7 1011.0 - 0.0 - - - - - - -
18/06:00am 24.8 SE 10 11 1010.7 - 0.0 - - - - - - -
18/05:30am 24.4 SE 10 12 1010.2 - 0.0 - - - - - - -
18/05:00am 24.2 SE 11 13 1009.9 - 0.0 - - - - - - -
18/04:30am 24.2 SE 11 13 1009.6 - 0.0 - - - - - - -
18/04:00am 24.2 SE 13 16 1009.0 - 0.0 - - - - - - -
18/03:30am 24.5 ESE 17 19 1008.4 - 0.0 - - - - - - -
18/03:00am 24.8 SE 14 17 1007.9 - 0.0 - - - - - - -
18/02:30am 25.3 S 15 21 1007.9 - 0.0 - - - - - - -
18/02:00am 26.2 SSW 15 23 1008.3 - 0.0 - - - - - - -
18/01:30am 26.3 WSW 13 20 1008.3 - 0.0 - - - - - - -
18/01:06am 27.7 W 15 28 1008.4 - 0.0 - - - - - - -
18/01:00am 26.5 WSW 15 22 1008.0 - 0.0 - - - - - - -
18/12:30am 24.7 W 14 18 1007.6 - 0.0 - - - - - - -
18/12:00am 24.6 WNW 14 18 1007.0 - 0.0 - - - - - - -
 
Date/Time
EST
Temp

°C
Wind Pressure Rain
since 9am
mm
Weather Cloud Vis
km
Sea
Height
m
Swell
Dir
 
Speed
knots
Gust
knots
hPa Trend Height
m
Period
s
Dir
17/11:30pm 24.0 WNW 13 17 1007.1 - 0.0 - - - - - - -
17/11:00pm 24.2 WNW 14 19 1007.2 - 0.0 - - - - - - -
17/10:30pm 24.2 NW 14 18 1007.5 - 0.0 - - - - - - -
17/10:00pm 24.4 NW 13 17 1007.5 - 0.0 - - - - - - -
17/09:30pm 24.8 NNW 13 17 1007.4 - 0.0 - - - - - - -
17/09:00pm 24.9 NW 12 15 1007.1 - 0.0 - - - - - - -
17/08:30pm 25.1 NNW 10 16 1006.6 - 0.0 - - - - - - -
17/08:00pm 25.2 NNW 16 20 1006.2 - 0.0 - - - - - - -
17/07:30pm 25.4 NNW 18 22 1005.9 - 0.0 - - - - - - -
17/07:00pm 25.4 N 19 23 1005.2 - 0.0 - - - - - - -
17/06:30pm 25.5 N 16 21 1004.8 - 0.0 - - - - - - -
17/06:00pm 25.7 N 16 20 1004.4 - 0.0 - - - - - - -
17/05:30pm 26.0 N 13 19 1004.1 - 0.0 - - - - - - -
17/05:00pm 26.2 N 13 18 1004.0 - 0.0 - - - - - - -
17/04:30pm 26.3 N 13 17 1004.1 - 0.0 - - - - - - -
17/04:00pm 26.2 N 11 16 1003.9 - 0.0 - - - - - - -
17/03:30pm 25.8 NNE 11 14 1003.9 - 0.0 - - - - - - -
17/03:00pm 26.7 NNE 13 15 1004.2 - 0.0 - - - - - - -
17/02:30pm 27.2 N 13 17 1004.4 - 0.0 - - - - - - -
17/02:00pm 27.3 N 14 17 1004.8 - 0.0 - - - - - - -
17/01:30pm 28.2 N 10 14 1004.9 - 0.0 - - - - - - -
17/01:00pm 27.7 N 11 14 1005.4 - 0.0 - - - - - - -
17/12:30pm 26.9 N 11 13 1005.6 - 0.0 - - - - - - -
17/12:00pm 26.6 N 11 13 1006.0 - 0.0 - - - - - - -
17/11:30am 27.2 NNW 9 12 1006.2 - 0.0 - - - - - - -
17/11:00am 26.9 NNW 9 12 1006.6 - 0.0 - - - - - - -
17/10:30am 26.2 NNW 8 10 1006.9 - 0.0 - - - - - - -
17/10:00am 25.7 NW 9 11 1006.9 - 0.0 - - - - - - -
17/09:30am 26.5 NW 7 10 1007.1 - 0.0 - - - - - - -
17/09:00am 26.5 WNW 8 13 1007.0 - 0.0 - - - - - - -
17/08:30am 25.4 WNW 8 11 1007.1 - 0.0 - - - - - - -
17/08:00am 25.8 WNW 6 9 1007.1 - 0.0 - - - - - - -
17/07:30am 24.9 WNW 6 9 1007.0 - 0.0 - - - - - - -
17/07:00am 24.4 WNW 4 6 1006.8 - 0.0 - - - - - - -
17/06:30am 24.2 WNW 5 9 1006.7 - 0.0 - - - - - - -
17/06:00am 23.6 NW 7 10 1006.3 - 0.0 - - - - - - -
17/05:30am 23.6 NW 11 13 1006.0 - 0.0 - - - - - - -
17/05:00am 23.7 NW 9 11 1005.5 - 0.0 - - - - - - -
17/04:30am 23.6 NW 7 9 1005.2 - 0.0 - - - - - - -
17/04:00am 23.2 NE 6 7 1004.7 - 0.0 - - - - - - -
17/03:30am 23.6 N 7 10 1004.6 - 0.0 - - - - - - -
17/03:00am 23.6 NW 8 10 1005.3 - 0.0 - - - - - - -
17/02:30am 23.5 NW 10 12 1005.3 - 0.0 - - - - - - -
17/02:00am 23.5 WNW 10 15 1005.5 - 0.0 - - - - - - -
17/01:30am 23.4 NW 12 15 1005.9 - 0.0 - - - - - - -
17/01:00am 23.5 WNW 11 14 1006.3 - 0.0 - - - - - - -
17/12:30am 23.6 NW 14 18 1006.4 - 0.0 - - - - - - -
17/12:00am 23.7 NNW 15 20 1006.8 - 0.0 - - - - - - -
 
Date/Time
EST
Temp

°C
Wind Pressure Rain
since 9am
mm
Weather Cloud Vis
km
Sea
Height
m
Swell
Dir
 
Speed
knots
Gust
knots
hPa Trend Height
m
Period
s
Dir
16/11:30pm 24.0 NW 14 19 1007.4 - 0.0 - - - - - - -
16/11:00pm 24.1 NW 13 17 1007.5 - 0.0 - - - - - - -
16/10:30pm 24.1 NNW 13 18 1007.2 - 0.0 - - - - - - -
16/10:00pm 24.0 N 18 21 1006.8 - 0.0 - - - - - - -
16/09:30pm 24.0 N 17 23 1006.6 - 0.0 - - - - - - -
16/09:00pm 23.9 N 17 21 1006.4 - 0.0 - - - - - - -
16/08:30pm 23.9 N 18 23 1006.8 - 0.0 - - - - - - -
16/08:00pm 23.8 N 15 22 1006.8 - 0.0 - - - - - - -
16/07:30pm 23.7 N 16 21 1006.6 - 0.0 - - - - - - -
16/07:00pm 23.7 NNE 15 19 1006.3 - 0.0 - - - - - - -
16/06:30pm 23.5 NNE 15 18 1006.2 - 0.0 - - - - - - -
16/06:00pm 23.6 NNE 16 19 1005.9 - 0.0 - - - - - - -
16/05:30pm 23.9 NNE 15 18 1005.6 - 0.0 - - - - - - -
16/05:00pm 24.0 NNE 15 19 1005.5 - 0.0 - - - - - - -
16/04:30pm 24.5 NE 13 17 1005.5 - 0.0 - - - - - - -
16/04:00pm 24.7 NE 13 17 1005.6 - 0.0 - - - - - - -
16/03:30pm 24.9 NNE 12 15 1005.7 - 0.0 - - - - - - -
16/03:00pm 25.4 NNE 12 15 1006.2 - 0.0 - - - - - - -
16/02:30pm 25.6 NNE 12 15 1006.8 - 0.0 - - - - - - -
16/02:00pm 25.4 NNE 11 15 1007.4 - 0.0 - - - - - - -
16/01:30pm 26.2 NNE 9 13 1007.8 - 0.0 - - - - - - -
16/01:00pm 26.2 N 9 12 1008.2 - 0.0 - - - - - - -
16/12:30pm 27.1 N 7 11 1008.5 - 0.0 - - - - - - -
16/12:00pm 25.7 N 8 11 1008.8 - 0.0 - - - - - - -
16/11:30am 25.7 N 7 9 1009.2 - 0.0 - - - - - - -
16/11:00am 25.0 NNW 8 10 1009.5 - 0.0 - - - - - - -
16/10:30am 24.5 NNW 7 9 1009.8 - 0.0 - - - - - - -
16/10:00am 24.1 NNW 7 10 1010.1 - 0.0 - - - - - - -
16/09:30am 24.0 NW 8 10 1010.6 - 0.0 - - - - - - -
16/09:00am 23.7 NW 6 9 1010.7 - 0.0 - - - - - - -
16/08:30am 23.2 NNW 4 7 1010.8 - 0.0 - - - - - - -

Other Formats:

Comma delimited format used in spreadsheet applications
http://www.bom.gov.au/fwo/IDQ60701/IDQ60701.94594.axf

JavaScript Object Notation format (JSON) in row-major order
http://www.bom.gov.au/fwo/IDQ60701/IDQ60701.94594.json